Time;durP1;ratioP1;P1;durP2;ratioP2;P2;SDS_P1;SDS_P2;PMS_P1;PMS_P2;Temp;Humidity;BMP_temperature;BMP_pressure;BME280_temperature;BME280_humidity;BME280_pressure;Samples;Min_cycle;Max_cycle;Signal;HPM_P1;HPM_P2
2023/03/14 00:01:24;;;;;;;2.35;1.48;;;10.70;99.90;;;;;;5019957;28;20240;-81
2023/03/14 00:03:50;;;;;;;3.10;1.20;;;10.70;99.90;;;;;;5033157;28;20189;-82
2023/03/14 00:06:17;;;;;;;2.75;1.33;;;10.70;99.90;;;;;;5032449;28;20247;-81
2023/03/14 00:08:44;;;;;;;2.58;1.30;;;10.60;99.90;;;;;;5031478;28;20208;-80
2023/03/14 00:11:16;;;;;;;2.00;1.30;;;10.60;99.90;;;;;;5047804;28;20530;-80
2023/03/14 00:13:41;;;;;;;2.88;1.52;;;10.50;99.90;;;;;;5032190;28;20177;-82
2023/03/14 00:16:12;;;;;;;5.70;1.80;;;10.50;99.90;;;;;;5033455;28;20182;-82
2023/03/14 00:18:38;;;;;;;2.15;1.50;;;10.50;99.90;;;;;;5032437;28;20209;-82
2023/03/14 00:21:05;;;;;;;3.83;1.50;;;10.40;99.90;;;;;;5032637;28;20202;-82
2023/03/14 00:23:33;;;;;;;3.33;1.60;;;10.40;99.90;;;;;;5032538;28;20181;-81
2023/03/14 00:26:03;;;;;;;3.17;1.60;;;10.40;99.90;;;;;;5033103;28;20183;-82
2023/03/14 00:28:29;;;;;;;2.03;1.25;;;10.40;99.90;;;;;;5033131;28;20190;-82
2023/03/14 00:30:55;;;;;;;5.28;1.35;;;10.30;99.90;;;;;;5047801;28;20613;-82
2023/03/14 00:33:21;;;;;;;3.05;1.55;;;10.30;99.90;;;;;;5031930;28;20178;-82
2023/03/14 00:36:15;;;;;;;2.42;1.48;;;10.30;99.90;;;;;;5049209;28;20178;-82
2023/03/14 00:38:42;;;;;;;2.13;1.40;;;10.20;99.90;;;;;;5030846;28;20186;-81
2023/03/14 00:41:14;;;;;;;3.80;1.70;;;10.20;99.90;;;;;;5031996;28;20207;-82
2023/03/14 00:43:39;;;;;;;2.35;1.60;;;10.30;99.90;;;;;;5030539;28;20471;-80
2023/03/14 00:46:05;;;;;;;4.82;1.67;;;10.30;99.90;;;;;;5033173;28;20175;-80
2023/03/14 00:48:31;;;;;;;1.55;1.20;;;10.30;99.90;;;;;;5031939;28;20254;-80
2023/03/14 00:50:57;;;;;;;2.75;1.25;;;10.40;99.90;;;;;;5032963;28;20293;-81
2023/03/14 00:53:23;;;;;;;3.33;1.25;;;10.50;99.90;;;;;;5032765;28;20526;-82
2023/03/14 00:55:49;;;;;;;2.08;1.30;;;10.60;99.90;;;;;;5031487;28;20198;-81
2023/03/14 00:58:17;;;;;;;3.58;1.33;;;10.70;99.90;;;;;;5031504;28;20186;-81
2023/03/14 01:00:43;;;;;;;3.05;1.42;;;10.80;99.90;;;;;;5032588;28;20553;-83
2023/03/14 01:03:11;;;;;;;3.17;1.15;;;10.80;99.90;;;;;;5015472;28;20179;-83
2023/03/14 01:05:36;;;;;;;2.30;1.13;;;10.90;99.90;;;;;;5014285;28;20209;-81
2023/03/14 01:08:02;;;;;;;2.70;1.20;;;11.00;99.90;;;;;;5014518;28;20174;-81
2023/03/14 01:10:28;;;;;;;1.48;0.90;;;11.00;99.90;;;;;;5032223;28;20205;-84
2023/03/14 01:12:54;;;;;;;1.58;1.10;;;11.00;99.90;;;;;;5032781;28;20175;-83
2023/03/14 01:15:21;;;;;;;1.75;1.17;;;11.10;99.90;;;;;;5015535;28;20185;-81
2023/03/14 01:17:47;;;;;;;2.30;1.30;;;11.10;99.90;;;;;;5034445;28;20178;-82
2023/03/14 01:20:14;;;;;;;4.68;1.40;;;11.10;99.90;;;;;;5036705;28;20545;-81
2023/03/14 01:22:41;;;;;;;3.60;1.20;;;11.00;99.90;;;;;;5019307;28;20391;-81
2023/03/14 01:25:10;;;;;;;3.25;0.80;;;11.00;99.90;;;;;;5037086;28;20261;-80
2023/03/14 01:27:35;;;;;;;2.22;1.40;;;11.00;99.90;;;;;;5018479;28;20179;-82
2023/03/14 01:30:02;;;;;;;2.08;1.23;;;11.00;99.90;;;;;;5018522;28;20348;-80
2023/03/14 01:32:28;;;;;;;2.47;0.90;;;11.00;99.90;;;;;;5035508;28;20519;-82
2023/03/14 01:34:53;;;;;;;5.68;1.40;;;11.00;99.90;;;;;;5035912;28;20181;-80
2023/03/14 01:37:19;;;;;;;2.95;1.00;;;11.00;99.90;;;;;;5017969;28;20179;-80
2023/03/14 01:39:47;;;;;;;1.95;1.00;;;11.00;99.90;;;;;;5035667;28;20515;-80
2023/03/14 01:42:14;;;;;;;3.10;0.93;;;11.00;99.90;;;;;;5036453;28;20210;-81
2023/03/14 01:45:28;;;;;;;3.85;0.70;;;10.90;99.90;;;;;;5018914;28;20185;-81
2023/03/14 01:47:53;;;;;;;1.95;0.73;;;10.90;99.90;;;;;;5005039;28;20629;-81
2023/03/14 01:50:19;;;;;;;3.05;1.25;;;11.00;99.90;;;;;;5035741;28;20178;-81
2023/03/14 01:52:52;;;;;;;1.50;0.80;;;10.90;99.90;;;;;;5035477;28;20253;-81
2023/03/14 01:55:25;;;;;;;1.73;0.93;;;10.90;99.90;;;;;;5017332;28;20559;-81
2023/03/14 01:57:56;;;;;;;1.88;1.10;;;10.80;99.90;;;;;;5035234;28;20189;-82
2023/03/14 02:00:24;;;;;;;5.22;1.23;;;10.70;99.90;;;;;;5036204;28;20198;-82
2023/03/14 02:03:02;;;;;;;2.45;1.00;;;10.80;99.90;;;;;;5034590;28;20565;-81
2023/03/14 02:05:35;;;;;;;2.45;1.23;;;10.80;99.90;;;;;;5035838;28;20166;-80
2023/03/14 02:08:03;;;;;;;1.20;0.90;;;10.80;99.90;;;;;;5017181;28;20613;-81
2023/03/14 02:10:34;;;;;;;2.47;1.42;;;10.90;99.90;;;;;;5017232;28;20187;-82
2023/03/14 02:13:02;;;;;;;2.10;1.02;;;11.00;99.90;;;;;;5017714;28;20171;-80
2023/03/14 02:15:28;;;;;;;1.67;1.02;;;10.90;99.90;;;;;;5017473;28;20178;-83
2023/03/14 02:17:54;;;;;;;3.40;0.93;;;10.90;99.90;;;;;;5028804;28;20583;-81
2023/03/14 02:20:26;;;;;;;1.75;1.00;;;11.00;99.90;;;;;;5035786;28;20294;-81
2023/03/14 02:22:52;;;;;;;2.83;0.95;;;11.00;99.90;;;;;;5035984;28;20514;-81
2023/03/14 02:25:45;;;;;;;2.35;1.17;;;11.00;99.90;;;;;;5035704;28;20179;-80
2023/03/14 02:28:12;;;;;;;3.72;0.93;;;10.90;99.90;;;;;;5000793;28;20174;-82
2023/03/14 02:30:38;;;;;;;2.35;1.10;;;10.90;99.90;;;;;;5035057;28;20171;-83
2023/03/14 02:33:06;;;;;;;2.15;1.00;;;11.00;99.90;;;;;;5017965;28;20174;-82
2023/03/14 02:35:39;;;;;;;1.63;0.85;;;11.00;99.90;;;;;;5017406;28;20294;-81
2023/03/14 02:38:31;;;;;;;2.67;0.80;;;10.90;99.90;;;;;;5017991;28;20183;-83
2023/03/14 02:40:56;;;;;;;2.17;1.00;;;10.90;99.90;;;;;;5017552;28;20249;-82
2023/03/14 02:43:22;;;;;;;1.67;0.82;;;10.90;99.90;;;;;;5016975;28;20206;-81
2023/03/14 02:45:49;;;;;;;2.60;0.90;;;10.80;99.90;;;;;;5034031;28;20181;-81
2023/03/14 02:48:25;;;;;;;3.50;1.30;;;10.90;99.90;;;;;;5016906;28;20179;-83
2023/03/14 02:50:55;;;;;;;2.50;1.08;;;10.80;99.90;;;;;;5016797;28;20174;-80
2023/03/14 02:53:31;;;;;;;2.00;0.68;;;10.70;99.90;;;;;;5034704;28;20174;-80
2023/03/14 02:55:57;;;;;;;4.55;0.93;;;10.70;99.90;;;;;;5034383;28;20783;-83
2023/03/14 02:58:23;;;;;;;2.88;0.80;;;10.70;99.90;;;;;;5034805;28;20221;-81
2023/03/14 03:00:49;;;;;;;1.77;0.90;;;10.70;99.90;;;;;;5015791;28;20230;-83
2023/03/14 03:03:15;;;;;;;3.08;0.95;;;10.70;99.90;;;;;;5034048;28;20301;-83
2023/03/14 03:05:42;;;;;;;2.55;0.80;;;10.70;99.90;;;;;;5016603;28;20179;-82
2023/03/14 03:08:08;;;;;;;3.00;0.80;;;10.70;99.90;;;;;;5034774;28;20171;-84
2023/03/14 03:10:34;;;;;;;3.13;0.90;;;10.70;99.90;;;;;;5034397;28;20178;-80
2023/03/14 03:13:00;;;;;;;6.38;1.20;;;10.70;99.90;;;;;;5033674;28;20519;-80
2023/03/14 03:17:55;;;;;;;4.55;1.00;;;10.60;99.90;;;;;;5007697;28;20246;-86
2023/03/14 03:20:21;;;;;;;3.13;1.00;;;10.60;99.90;;;;;;5014805;28;20637;-91
2023/03/14 03:22:46;;;;;;;2.53;0.93;;;10.50;99.90;;;;;;4997636;28;20175;-85
2023/03/14 03:25:12;;;;;;;1.23;0.70;;;10.60;99.90;;;;;;5015071;28;20175;-87
2023/03/14 03:27:38;;;;;;;2.65;1.05;;;10.60;99.90;;;;;;4997405;28;20421;-87
2023/03/14 03:30:06;;;;;;;1.70;0.70;;;10.50;99.90;;;;;;5013804;28;20247;-86
2023/03/14 03:32:32;;;;;;;0.93;0.75;;;10.50;99.90;;;;;;5014511;28;20171;-85
2023/03/14 03:34:57;;;;;;;3.30;0.80;;;10.40;99.90;;;;;;5013650;28;20187;-89
2023/03/14 03:37:24;;;;;;;1.15;0.90;;;10.40;99.90;;;;;;4997278;28;20186;-87
2023/03/14 03:39:52;;;;;;;1.27;0.77;;;10.40;99.90;;;;;;4996741;28;20602;-86
2023/03/14 03:42:19;;;;;;;2.97;0.80;;;10.40;99.90;;;;;;4996240;28;20571;-89
2023/03/14 03:44:45;;;;;;;2.55;0.88;;;10.40;99.90;;;;;;4996283;28;20195;-88
2023/03/14 03:47:10;;;;;;;2.15;0.93;;;10.40;99.90;;;;;;5013124;28;20526;-86
2023/03/14 03:49:36;;;;;;;4.00;0.90;;;10.40;99.90;;;;;;5014537;28;20171;-86
2023/03/14 03:52:02;;;;;;;1.95;0.70;;;10.30;99.90;;;;;;5013177;28;20332;-85
2023/03/14 03:54:28;;;;;;;2.45;0.70;;;10.30;99.90;;;;;;5012448;28;20179;-91
2023/03/14 03:56:55;;;;;;;2.15;0.73;;;10.20;99.90;;;;;;5012559;28;20403;-88
2023/03/14 03:59:20;;;;;;;2.53;0.80;;;10.20;99.90;;;;;;4996373;28;20273;-87
2023/03/14 04:01:47;;;;;;;1.50;0.80;;;10.20;99.90;;;;;;4996722;28;20265;-88
2023/03/14 04:04:13;;;;;;;3.33;0.90;;;10.20;99.90;;;;;;4996722;28;20198;-88
2023/03/14 04:06:39;;;;;;;2.72;1.05;;;10.20;99.90;;;;;;5013466;28;20622;-87
2023/03/14 04:09:04;;;;;;;3.92;0.93;;;10.10;99.90;;;;;;4994844;28;20175;-85
2023/03/14 04:11:30;;;;;;;2.10;0.90;;;10.20;99.90;;;;;;5012938;28;20237;-85
2023/03/14 04:13:56;;;;;;;1.02;0.80;;;10.20;99.90;;;;;;5013396;28;20175;-89
2023/03/14 04:16:24;;;;;;;3.33;0.70;;;10.20;99.90;;;;;;5012670;28;20534;-88
2023/03/14 04:18:50;;;;;;;1.15;0.80;;;10.10;99.90;;;;;;5013558;28;20175;-82
2023/03/14 04:21:16;;;;;;;0.68;0.60;;;10.10;99.90;;;;;;5012934;28;20210;-90
2023/03/14 04:23:42;;;;;;;1.88;0.93;;;10.10;99.90;;;;;;4996130;28;20183;-85
2023/03/14 04:26:07;;;;;;;5.72;0.80;;;10.10;99.90;;;;;;4996580;28;20289;-85
2023/03/14 04:28:36;;;;;;;4.05;1.35;;;10.00;99.90;;;;;;4996381;28;20625;-86
2023/03/14 04:31:14;;;;;;;2.78;0.98;;;9.90;99.90;;;;;;4995419;28;20286;-84
2023/03/14 04:33:40;;;;;;;3.63;0.82;;;10.00;99.90;;;;;;5012915;28;20199;-87
2023/03/14 04:36:07;;;;;;;4.47;1.20;;;10.00;99.90;;;;;;4995949;28;20213;-84
2023/03/14 04:38:33;;;;;;;3.03;1.00;;;9.90;99.90;;;;;;4996367;28;20575;-88
2023/03/14 04:41:00;;;;;;;2.85;1.00;;;10.00;99.90;;;;;;5013684;28;20234;-83
2023/03/14 04:43:26;;;;;;;2.33;0.80;;;10.00;99.90;;;;;;4995620;28;20182;-81
2023/03/14 04:59:20;;;;;;;3.42;0.80;;;10.10;99.90;;;;;;5017149;28;20189;-86
2023/03/14 05:01:45;;;;;;;3.22;1.45;;;10.10;99.90;;;;;;5016367;28;20293;-88
2023/03/14 05:04:11;;;;;;;4.30;0.75;;;10.00;99.90;;;;;;5016377;28;20179;-85
2023/03/14 05:06:37;;;;;;;1.33;0.77;;;10.00;99.90;;;;;;5000101;28;20529;-84
2023/03/14 05:09:04;;;;;;;3.95;0.88;;;10.00;99.90;;;;;;4999529;28;20182;-84
2023/03/14 05:11:30;;;;;;;2.55;0.70;;;10.00;99.90;;;;;;4998953;28;20664;-84
2023/03/14 05:13:56;;;;;;;1.52;0.90;;;9.90;99.90;;;;;;5016225;28;20180;-86
2023/03/14 05:16:21;;;;;;;2.35;0.88;;;9.90;99.90;;;;;;4999880;28;20573;-84
2023/03/14 05:18:47;;;;;;;2.78;1.13;;;9.90;99.90;;;;;;5017395;28;20191;-89
2023/03/14 05:21:13;;;;;;;2.85;0.77;;;9.80;99.90;;;;;;4998920;28;20546;-89
2023/03/14 05:23:38;;;;;;;1.25;0.70;;;9.80;99.90;;;;;;4998456;28;20186;-85
2023/03/14 05:26:04;;;;;;;2.00;0.82;;;9.70;99.90;;;;;;5016671;28;20222;-84
2023/03/14 05:28:30;;;;;;;4.13;0.90;;;9.60;99.90;;;;;;5017085;28;20180;-83
2023/03/14 05:30:55;;;;;;;2.83;0.80;;;9.60;99.90;;;;;;5017023;28;20155;-85
2023/03/14 05:33:21;;;;;;;3.10;0.80;;;9.60;99.90;;;;;;5015680;28;20179;-89
2023/03/14 05:35:47;;;;;;;2.15;0.80;;;9.60;99.90;;;;;;4998229;28;20179;-84
2023/03/14 05:38:12;;;;;;;1.20;0.70;;;9.50;99.90;;;;;;4998496;28;20183;-84
2023/03/14 05:40:38;;;;;;;2.35;0.73;;;9.40;99.90;;;;;;4999074;28;20210;-82
2023/03/14 05:43:03;;;;;;;1.05;0.70;;;9.50;99.90;;;;;;5015564;28;20171;-84
2023/03/14 05:45:29;;;;;;;2.28;0.80;;;9.50;99.90;;;;;;4999319;28;20179;-82
2023/03/14 05:47:55;;;;;;;4.25;0.90;;;9.50;99.90;;;;;;5016274;28;20630;-85
2023/03/14 05:50:20;;;;;;;3.53;0.90;;;9.60;99.90;;;;;;4997894;28;20218;-86
2023/03/14 05:52:46;;;;;;;4.55;0.80;;;9.50;99.90;;;;;;5016220;28;20167;-84
2023/03/14 05:55:11;;;;;;;1.20;0.60;;;9.50;99.90;;;;;;4999247;28;20588;-86
2023/03/14 05:57:37;;;;;;;2.55;0.68;;;9.50;99.90;;;;;;4999283;28;20171;-91
2023/03/14 06:00:03;;;;;;;2.97;0.80;;;9.50;99.90;;;;;;5005910;28;20226;-84
2023/03/14 06:02:29;;;;;;;2.90;1.02;;;9.50;99.90;;;;;;5015697;28;20257;-83
2023/03/14 06:04:54;;;;;;;3.97;1.00;;;9.60;99.90;;;;;;4997791;28;20669;-85
2023/03/14 06:07:20;;;;;;;2.78;0.90;;;9.60;99.90;;;;;;4998976;28;20187;-87
2023/03/14 06:09:46;;;;;;;2.25;0.73;;;9.60;99.90;;;;;;5016356;28;20175;-83
2023/03/14 06:12:11;;;;;;;2.15;0.65;;;9.50;99.90;;;;;;5016275;28;20246;-83
2023/03/14 06:14:37;;;;;;;2.72;0.70;;;9.50;99.90;;;;;;4998085;28;20278;-89
2023/03/14 06:17:02;;;;;;;2.35;0.50;;;9.50;99.90;;;;;;4997724;28;20277;-84
2023/03/14 06:19:28;;;;;;;2.60;0.70;;;9.50;99.90;;;;;;4997969;28;20610;-84
2023/03/14 06:21:54;;;;;;;0.68;0.32;;;9.50;99.90;;;;;;5016079;28;20344;-84
2023/03/14 06:24:19;;;;;;;2.47;0.75;;;9.50;99.90;;;;;;5031389;28;20226;-88
2023/03/14 06:26:45;;;;;;;2.60;0.70;;;9.60;99.90;;;;;;5015373;28;20250;-87
2023/03/14 06:29:11;;;;;;;1.75;0.60;;;9.60;99.90;;;;;;5014193;28;20287;-87
2023/03/14 06:31:36;;;;;;;2.20;0.63;;;9.70;99.90;;;;;;4998415;28;20175;-88
2023/03/14 06:34:02;;;;;;;3.00;0.80;;;9.70;99.90;;;;;;5015631;28;20594;-87
2023/03/14 06:36:28;;;;;;;1.98;0.40;;;9.80;99.90;;;;;;4997895;28;20183;-85
2023/03/14 06:38:53;;;;;;;3.58;0.73;;;9.80;99.90;;;;;;5014382;28;20616;-87
2023/03/14 06:41:19;;;;;;;3.35;0.60;;;9.80;99.90;;;;;;5014898;28;20699;-88
2023/03/14 06:43:45;;;;;;;1.63;0.60;;;9.80;99.90;;;;;;4998074;28;20187;-89
2023/03/14 06:46:11;;;;;;;3.53;0.70;;;9.80;99.90;;;;;;4998380;28;20183;-88
2023/03/14 06:48:36;;;;;;;2.45;0.55;;;9.80;99.90;;;;;;5014673;28;20234;-88
2023/03/14 06:51:02;;;;;;;2.85;0.75;;;9.80;99.90;;;;;;4997349;28;20852;-89
2023/03/14 06:53:28;;;;;;;7.68;0.70;;;9.90;99.90;;;;;;4997292;28;20179;-86
2023/03/14 06:55:53;;;;;;;2.53;0.70;;;10.00;99.90;;;;;;4997945;28;20207;-87
2023/03/14 06:58:19;;;;;;;2.10;0.75;;;10.10;99.90;;;;;;5015467;28;20727;-86
2023/03/14 07:00:45;;;;;;;4.90;0.85;;;10.20;99.90;;;;;;4997871;28;20289;-85
2023/03/14 07:03:13;;;;;;;1.35;0.57;;;10.30;99.90;;;;;;5015298;28;20173;-85
2023/03/14 07:05:40;;;;;;;2.15;0.60;;;10.40;99.90;;;;;;5014402;28;20179;-85
2023/03/14 07:08:06;;;;;;;2.67;0.80;;;10.50;99.90;;;;;;5013853;28;20274;-90
2023/03/14 07:10:32;;;;;;;3.47;0.70;;;10.60;99.90;;;;;;4997780;28;20183;-89
2023/03/14 07:12:57;;;;;;;2.85;0.75;;;10.70;99.90;;;;;;5014242;28;20171;-84
2023/03/14 07:15:23;;;;;;;3.58;0.70;;;10.60;99.90;;;;;;5013530;28;20183;-86
2023/03/14 07:17:49;;;;;;;2.70;0.88;;;10.50;99.90;;;;;;4996583;28;20795;-85
2023/03/14 07:20:15;;;;;;;1.98;0.73;;;10.60;99.90;;;;;;5013180;28;20194;-85
2023/03/14 07:22:40;;;;;;;2.65;0.80;;;10.60;99.90;;;;;;4997031;28;20209;-83
2023/03/14 07:25:06;;;;;;;1.25;0.38;;;10.60;99.90;;;;;;4997803;28;20266;-86
2023/03/14 07:27:32;;;;;;;2.08;0.90;;;10.60;99.90;;;;;;5014657;28;20175;-83
2023/03/14 07:29:57;;;;;;;2.60;0.60;;;10.60;99.90;;;;;;5013628;28;20171;-83
2023/03/14 07:32:23;;;;;;;1.33;0.50;;;10.70;99.90;;;;;;5014043;28;20221;-88
2023/03/14 07:34:49;;;;;;;3.75;0.82;;;10.70;99.90;;;;;;4996697;28;20534;-85
2023/03/14 07:37:14;;;;;;;1.20;0.50;;;10.70;99.90;;;;;;4997374;28;20606;-87
2023/03/14 07:39:40;;;;;;;2.10;0.60;;;10.80;99.90;;;;;;4996985;28;20183;-91
2023/03/14 07:42:06;;;;;;;2.03;0.50;;;10.80;99.90;;;;;;4996572;28;20206;-87
2023/03/14 07:44:31;;;;;;;1.92;0.57;;;10.70;99.90;;;;;;4992460;28;20179;-85
2023/03/14 07:46:57;;;;;;;3.67;0.80;;;10.80;99.90;;;;;;4996637;28;20518;-83
2023/03/14 07:49:23;;;;;;;2.28;0.68;;;10.90;99.90;;;;;;5013925;28;20179;-85
2023/03/14 07:51:49;;;;;;;2.50;0.80;;;11.00;99.90;;;;;;4996954;28;20225;-85
2023/03/14 07:54:15;;;;;;;1.45;0.52;;;10.90;99.90;;;;;;4996317;28;20211;-91
2023/03/14 07:56:40;;;;;;;1.45;0.55;;;10.90;99.90;;;;;;4995829;28;20589;-92
2023/03/14 07:59:07;;;;;;;2.83;0.70;;;10.90;99.90;;;;;;5013427;28;20175;-83
2023/03/14 08:01:32;;;;;;;4.55;0.77;;;10.90;99.90;;;;;;4996593;28;20305;-85
2023/03/14 08:03:58;;;;;;;2.90;0.80;;;10.90;99.90;;;;;;4996513;28;20258;-85
2023/03/14 08:06:24;;;;;;;4.28;1.13;;;11.00;99.90;;;;;;4996630;28;20192;-84
2023/03/14 08:08:50;;;;;;;2.90;0.57;;;10.90;99.90;;;;;;4995532;28;20669;-86
2023/03/14 08:11:16;;;;;;;1.58;0.52;;;11.00;99.90;;;;;;5013325;28;20254;-85
2023/03/14 08:13:42;;;;;;;3.35;1.00;;;11.00;99.90;;;;;;4996358;28;20262;-86
2023/03/14 08:16:08;;;;;;;3.72;0.65;;;10.90;99.90;;;;;;4995764;28;20227;-83
2023/03/14 08:18:34;;;;;;;1.98;0.63;;;10.90;99.90;;;;;;5013921;28;20179;-83
2023/03/14 08:20:59;;;;;;;4.50;0.95;;;11.00;99.90;;;;;;4995328;28;20222;-91
2023/03/14 08:23:25;;;;;;;4.05;0.90;;;11.00;99.90;;;;;;4995421;28;20175;-84
2023/03/14 08:25:51;;;;;;;3.00;0.60;;;11.10;99.90;;;;;;4996178;28;20610;-85
2023/03/14 08:28:18;;;;;;;1.73;0.73;;;11.10;99.90;;;;;;4995417;28;20179;-84
2023/03/14 08:30:44;;;;;;;3.95;0.80;;;11.20;99.90;;;;;;4995297;28;20179;-84
2023/03/14 08:33:09;;;;;;;3.72;0.85;;;11.30;99.90;;;;;;4995373;28;20177;-88
2023/03/14 08:35:37;;;;;;;3.28;1.00;;;11.40;99.90;;;;;;4995215;28;20642;-84
2023/03/14 08:38:03;;;;;;;4.22;0.90;;;11.30;99.90;;;;;;4995724;28;20175;-84
2023/03/14 08:40:28;;;;;;;5.05;1.00;;;11.30;99.90;;;;;;4996395;28;20325;-88
2023/03/14 08:42:54;;;;;;;2.85;0.70;;;11.30;99.90;;;;;;4996141;28;20221;-84
2023/03/14 08:45:20;;;;;;;2.30;0.63;;;11.30;99.90;;;;;;5011611;28;20269;-86
2023/03/14 08:47:45;;;;;;;1.63;0.65;;;11.40;99.90;;;;;;5012759;28;20629;-87
2023/03/14 08:50:12;;;;;;;1.83;0.70;;;11.30;99.90;;;;;;5011846;28;20178;-85
2023/03/14 08:52:40;;;;;;;2.33;0.80;;;11.30;99.90;;;;;;4996109;28;20178;-83
2023/03/14 08:55:07;;;;;;;5.85;0.90;;;11.30;99.90;;;;;;4996003;28;20183;-89
2023/03/14 08:57:32;;;;;;;3.60;1.00;;;11.40;99.90;;;;;;5013264;28;20179;-83
2023/03/14 08:59:58;;;;;;;3.35;0.73;;;11.40;99.90;;;;;;4993817;28;20175;-84
2023/03/14 09:02:25;;;;;;;1.85;0.73;;;11.50;99.90;;;;;;4995164;28;20229;-83
2023/03/14 09:04:51;;;;;;;2.95;0.93;;;11.40;99.90;;;;;;5012118;28;20179;-85
2023/03/14 09:07:18;;;;;;;1.92;0.57;;;11.40;99.90;;;;;;5012372;28;20183;-84
2023/03/14 09:09:43;;;;;;;4.47;0.98;;;11.40;99.90;;;;;;4995664;28;20179;-82
2023/03/14 09:12:09;;;;;;;3.35;0.88;;;11.50;99.90;;;;;;5012247;28;20178;-83
2023/03/14 09:14:35;;;;;;;4.38;1.20;;;11.50;99.90;;;;;;5011385;28;20202;-83
2023/03/14 09:17:00;;;;;;;5.55;0.95;;;11.50;99.90;;;;;;5013134;28;20226;-83
2023/03/14 09:19:26;;;;;;;4.05;1.15;;;11.40;99.90;;;;;;4995578;28;20175;-84
2023/03/14 09:21:52;;;;;;;3.92;1.02;;;11.40;99.90;;;;;;5011403;28;20229;-83
2023/03/14 09:24:17;;;;;;;1.88;0.70;;;11.30;99.90;;;;;;5011026;28;20172;-83
2023/03/14 09:26:43;;;;;;;3.28;0.50;;;11.30;99.90;;;;;;4994512;28;20187;-83
2023/03/14 09:29:09;;;;;;;4.53;0.80;;;11.20;99.90;;;;;;5013129;28;20175;-83
2023/03/14 09:31:35;;;;;;;4.35;1.00;;;11.10;99.90;;;;;;5012995;28;20687;-84
2023/03/14 09:34:01;;;;;;;3.97;0.82;;;11.20;99.90;;;;;;4995689;28;20274;-85
2023/03/14 09:36:26;;;;;;;2.42;0.63;;;11.20;99.90;;;;;;5012220;28;20618;-81
2023/03/14 09:38:52;;;;;;;1.42;0.77;;;11.40;99.90;;;;;;4996427;28;20190;-82
2023/03/14 09:41:24;;;;;;;4.45;1.00;;;11.50;99.90;;;;;;4998624;28;20269;-81
2023/03/14 09:44:02;;;;;;;3.10;0.73;;;11.60;99.90;;;;;;4999125;28;20180;-81
2023/03/14 09:46:31;;;;;;;4.35;0.80;;;11.60;99.90;;;;;;4999095;28;20171;-83
2023/03/14 09:48:56;;;;;;;3.05;0.88;;;11.70;99.90;;;;;;4998509;28;20206;-85
2023/03/14 09:51:23;;;;;;;4.47;0.80;;;11.80;99.90;;;;;;4997709;28;20241;-84
2023/03/14 09:53:50;;;;;;;1.88;0.70;;;11.80;99.90;;;;;;5014579;28;20322;-82
2023/03/14 09:56:29;;;;;;;1.52;0.50;;;12.00;99.90;;;;;;4999025;28;20190;-90
2023/03/14 09:58:58;;;;;;;3.25;0.75;;;12.00;99.90;;;;;;5016581;28;20178;-86
2023/03/14 10:01:29;;;;;;;2.40;0.57;;;12.10;99.90;;;;;;5014947;28;20297;-91
2023/03/14 10:03:57;;;;;;;2.88;0.80;;;12.00;99.90;;;;;;5015834;28;20254;-87
2023/03/14 10:06:26;;;;;;;3.50;0.80;;;11.90;99.90;;;;;;5014729;28;20270;-84
2023/03/14 10:08:54;;;;;;;1.90;0.70;;;11.90;99.90;;;;;;5015592;28;20187;-84
2023/03/14 10:11:20;;;;;;;2.00;0.40;;;12.10;99.90;;;;;;4998543;28;20186;-84
2023/03/14 10:14:09;;;;;;;2.05;0.40;;;12.20;99.90;;;;;;5015504;28;20517;-91
2023/03/14 10:16:46;;;;;;;1.25;0.55;;;12.40;99.90;;;;;;5013860;28;20317;-83
2023/03/14 10:19:17;;;;;;;2.15;0.63;;;12.70;99.90;;;;;;4998161;28;20290;-84
2023/03/14 10:21:53;;;;;;;2.22;0.65;;;12.90;99.90;;;;;;4998486;28;20322;-89
2023/03/14 10:24:26;;;;;;;1.80;0.47;;;13.10;99.90;;;;;;4998995;28;20179;-89
2023/03/14 10:26:54;;;;;;;0.90;0.45;;;12.80;99.90;;;;;;5015930;28;20277;-89
2023/03/14 10:29:21;;;;;;;2.42;0.50;;;12.80;99.90;;;;;;4997893;28;20190;-83
2023/03/14 10:32:07;;;;;;;1.90;0.63;;;12.70;99.90;;;;;;4997800;28;20636;-82
2023/03/14 10:34:36;;;;;;;1.25;0.52;;;12.70;99.90;;;;;;5014933;28;20614;-82
2023/03/14 10:37:28;;;;;;;1.95;0.70;;;12.40;99.90;;;;;;5015861;28;20258;-81
2023/03/14 10:39:58;;;;;;;1.50;0.60;;;12.30;99.90;;;;;;5011710;28;20191;-83
2023/03/14 10:42:31;;;;;;;1.95;0.40;;;12.30;99.90;;;;;;5013598;28;20655;-85
2023/03/14 10:45:00;;;;;;;0.40;0.30;;;12.20;99.90;;;;;;4996989;28;20183;-83
2023/03/14 10:47:28;;;;;;;0.77;0.40;;;12.10;99.90;;;;;;4998254;28;20183;-84
2023/03/14 10:49:54;;;;;;;0.45;0.38;;;12.20;99.90;;;;;;4996399;28;20179;-87
2023/03/14 10:52:25;;;;;;;1.92;0.40;;;12.20;99.90;;;;;;5013554;28;20633;-84
2023/03/14 10:55:01;;;;;;;1.27;0.50;;;12.20;99.90;;;;;;4989927;28;20188;-84
2023/03/14 10:57:27;;;;;;;4.78;0.45;;;12.20;99.90;;;;;;4996109;28;20175;-86
2023/03/14 10:59:56;;;;;;;0.55;0.30;;;12.10;99.90;;;;;;4978163;28;20183;-91
2023/03/14 11:02:41;;;;;;;3.22;0.40;;;12.10;99.90;;;;;;4978473;28;20681;-87
2023/03/14 11:05:19;;;;;;;0.98;0.30;;;12.20;99.90;;;;;;4970469;28;20184;-86
2023/03/14 11:07:45;;;;;;;1.58;0.43;;;12.40;99.90;;;;;;4986977;28;20668;-86
2023/03/14 11:10:26;;;;;;;0.75;0.45;;;12.60;99.90;;;;;;4995100;28;20187;-86
2023/03/14 11:13:06;;;;;;;0.57;0.30;;;12.70;99.90;;;;;;4977720;28;20617;-88
2023/03/14 11:15:47;;;;;;;0.88;0.32;;;12.70;99.90;;;;;;4976742;28;20196;-85
2023/03/14 11:19:03;;;;;;;1.05;0.30;;;12.90;99.90;;;;;;4994121;28;20216;-85
2023/03/14 11:21:35;;;;;;;0.30;0.30;;;13.00;99.90;;;;;;4938468;29;20205;-91
2023/03/14 11:24:06;;;;;;;2.05;0.30;;;12.90;99.90;;;;;;4956886;28;20189;-86
2023/03/14 11:27:05;;;;;;;1.02;0.30;;;12.70;99.90;;;;;;4974385;28;20523;-85
2023/03/14 11:29:33;;;;;;;1.85;0.35;;;12.80;99.90;;;;;;4973613;28;20172;-85
2023/03/14 11:32:03;;;;;;;0.40;0.20;;;13.00;99.90;;;;;;4974629;28;20184;-83
2023/03/14 11:35:04;;;;;;;0.80;0.30;;;12.80;99.90;;;;;;4975772;28;20983;-84
2023/03/14 11:37:34;;;;;;;0.90;0.40;;;12.70;99.90;;;;;;4963309;28;20192;-83
2023/03/14 11:40:17;;;;;;;0.85;0.25;;;12.70;99.90;;;;;;4957106;28;20184;-83
2023/03/14 11:42:47;;;;;;;0.57;0.30;;;12.60;99.90;;;;;;4974831;28;20177;-83
2023/03/14 11:45:38;;;;;;;0.57;0.30;;;12.60;99.90;;;;;;4973565;28;20215;-87
2023/03/14 11:48:25;;;;;;;0.40;0.30;;;12.40;99.90;;;;;;4977785;28;20219;-85
2023/03/14 11:50:54;;;;;;;0.40;0.30;;;12.40;99.90;;;;;;4994005;28;20230;-87
2023/03/14 11:53:48;;;;;;;0.20;0.20;;;12.40;99.90;;;;;;4975651;28;20259;-85
2023/03/14 11:56:52;;;;;;;0.30;0.30;;;12.40;99.90;;;;;;4976050;28;20184;-83
2023/03/14 11:59:39;;;;;;;0.68;0.30;;;12.50;99.90;;;;;;4971950;28;20274;-85
2023/03/14 12:02:21;;;;;;;0.60;0.40;;;12.40;99.90;;;;;;4993102;28;20230;-84
2023/03/14 12:04:55;;;;;;;0.60;0.30;;;12.40;99.90;;;;;;4993607;28;20328;-86
2023/03/14 12:07:34;;;;;;;0.88;0.30;;;12.30;99.90;;;;;;4993151;28;20531;-88
2023/03/14 12:10:02;;;;;;;1.00;0.50;;;12.10;99.90;;;;;;4992559;28;20176;-85
2023/03/14 12:12:29;;;;;;;0.60;0.30;;;12.00;99.90;;;;;;4976987;28;20183;-85
2023/03/14 12:15:01;;;;;;;0.55;0.40;;;11.80;99.90;;;;;;4977401;28;20187;-85
2023/03/14 12:17:39;;;;;;;0.57;0.30;;;11.70;99.90;;;;;;4993797;28;20220;-88
2023/03/14 12:20:14;;;;;;;3.22;0.50;;;11.40;99.90;;;;;;4976424;28;20187;-84
2023/03/14 12:22:56;;;;;;;0.77;0.40;;;10.60;99.90;;;;;;4976487;28;20223;-85
2023/03/14 12:25:28;;;;;;;1.77;0.40;;;10.00;99.90;;;;;;4993676;28;20164;-87
2023/03/14 12:27:56;;;;;;;0.93;0.27;;;9.50;99.90;;;;;;4977115;28;20176;-85
2023/03/14 12:30:30;;;;;;;0.80;0.50;;;9.00;99.90;;;;;;4976112;28;20214;-86
2023/03/14 12:33:18;;;;;;;0.30;0.30;;;8.70;99.90;;;;;;4975971;28;20176;-87
2023/03/14 12:35:48;;;;;;;0.50;0.40;;;8.40;99.90;;;;;;4974404;28;20653;-86
2023/03/14 12:38:29;;;;;;;2.40;0.57;;;8.30;99.90;;;;;;4977185;28;20230;-89
2023/03/14 12:41:03;;;;;;;0.50;0.33;;;8.10;99.90;;;;;;4976719;28;20253;-88
2023/03/14 12:43:34;;;;;;;0.87;0.37;;;7.90;99.90;;;;;;4976055;28;20202;-87
2023/03/14 12:46:08;;;;;;;0.80;0.30;;;7.50;99.90;;;;;;4976521;28;20176;-88
2023/03/14 12:48:34;;;;;;;1.03;0.47;;;7.40;99.90;;;;;;4977089;28;20211;-85
2023/03/14 12:51:12;;;;;;;1.23;0.60;;;7.20;99.90;;;;;;4976855;28;20685;-90
2023/03/14 12:54:20;;;;;;;0.27;0.20;;;7.00;99.90;;;;;;4976888;28;20182;-86
2023/03/14 12:57:10;;;;;;;1.77;0.33;;;6.90;99.90;;;;;;4957815;28;20202;-88
2023/03/14 12:59:38;;;;;;;0.20;0.20;;;6.70;99.90;;;;;;4992537;28;20216;-88
2023/03/14 13:02:06;;;;;;;0.50;0.40;;;6.60;99.90;;;;;;4994049;28;20298;-90
2023/03/14 13:04:48;;;;;;;2.23;0.23;;;6.40;99.90;;;;;;4993032;28;20172;-89
2023/03/14 13:07:32;;;;;;;0.63;0.40;;;6.30;99.90;;;;;;4993976;28;20240;-85
2023/03/14 13:10:09;;;;;;;0.80;0.30;;;6.10;99.90;;;;;;4974935;28;20179;-86
2023/03/14 13:12:47;;;;;;;0.30;0.30;;;6.10;99.90;;;;;;4992598;28;20175;-87
2023/03/14 13:15:25;;;;;;;0.50;0.40;;;5.90;99.90;;;;;;4980766;28;20175;-86